createdAt,value
2022-09-07T00:01:15.824Z,96929.31
2022-09-07T00:06:12.505Z,96918.81
2022-09-07T00:11:12.048Z,96912.53
2022-09-07T00:16:11.738Z,96898.41
2022-09-07T00:21:09.229Z,96898.94
2022-09-07T00:26:03.816Z,96900.91
2022-09-07T00:30:57.269Z,96894.91
2022-09-07T00:35:50.848Z,96887.97
2022-09-07T00:40:45.614Z,96881.16
2022-09-07T00:45:39.129Z,96878.50
2022-09-07T00:50:38.608Z,96867.53
2022-09-07T00:55:34.765Z,96868.53
2022-09-07T01:00:29.818Z,96863.06
2022-09-07T01:05:30.625Z,96872.50
2022-09-07T01:10:30.677Z,96874.00
2022-09-07T01:15:40.718Z,96866.03
2022-09-07T01:20:59.387Z,96890.09
2022-09-07T01:26:22.392Z,96894.09
2022-09-07T01:31:31.798Z,96892.59
2022-09-07T01:36:36.212Z,96895.75
2022-09-07T01:41:40.063Z,96899.72
2022-09-07T01:46:43.410Z,96910.19
2022-09-07T01:51:42.511Z,96910.66
2022-09-07T01:56:43.166Z,96902.03
2022-09-07T02:01:46.531Z,96880.47
2022-09-07T02:06:48.056Z,96884.59
2022-09-07T02:11:46.759Z,96875.97
2022-09-07T02:16:52.470Z,96889.59
2022-09-07T02:21:54.135Z,96890.25
2022-09-07T02:26:51.617Z,96882.63
2022-09-07T02:31:47.367Z,96896.41
2022-09-07T02:36:46.462Z,96905.16
2022-09-07T02:41:43.141Z,96918.44
2022-09-07T02:47:00.960Z,96923.22
2022-09-07T02:52:08.497Z,96916.94
2022-09-07T02:57:23.166Z,96913.66
2022-09-07T03:02:29.959Z,96909.84
2022-09-07T03:07:34.545Z,96914.97
2022-09-07T03:12:41.897Z,96912.66
2022-09-07T03:17:36.675Z,96909.50
2022-09-07T03:22:33.892Z,96906.69
2022-09-07T03:27:27.348Z,96914.81
2022-09-07T03:32:20.711Z,96927.28
2022-09-07T03:37:15.796Z,96933.75
2022-09-07T03:42:09.300Z,96926.13
2022-09-07T03:47:02.933Z,96934.09
2022-09-07T03:51:56.303Z,96932.91
2022-09-07T03:56:51.075Z,96929.75
2022-09-07T04:01:44.453Z,96927.91
2022-09-07T04:06:37.891Z,96941.72
2022-09-07T04:11:31.909Z,96942.69
2022-09-07T04:16:28.946Z,96955.97
2022-09-07T04:21:24.373Z,96953.78
2022-09-07T04:26:22.777Z,96946.81
2022-09-07T04:31:19.487Z,96952.81
2022-09-07T04:36:15.567Z,96943.47
2022-09-07T04:41:12.049Z,96947.63
2022-09-07T04:46:07.249Z,96958.94
2022-09-07T04:51:06.857Z,96956.97
2022-09-07T04:56:02.240Z,96972.09
2022-09-07T05:00:55.707Z,96972.72
2022-09-07T05:05:49.480Z,96972.09
2022-09-07T05:10:53.042Z,96972.41
2022-09-07T05:15:48.323Z,96961.13
2022-09-07T05:20:42.713Z,96966.22
2022-09-07T05:25:36.784Z,96953.94
2022-09-07T05:35:44.949Z,96968.03
2022-09-07T05:40:40.675Z,96965.25
2022-09-07T05:45:34.399Z,96973.06
2022-09-07T05:50:27.781Z,96974.53
2022-09-07T05:55:30.067Z,96975.88
2022-09-07T06:00:23.976Z,96977.34
2022-09-07T06:05:17.621Z,96975.03
2022-09-07T06:15:25.923Z,96971.25
2022-09-07T06:20:19.425Z,96976.56
2022-09-07T06:25:12.837Z,96971.44
2022-09-07T06:30:07.688Z,96983.03
2022-09-07T06:35:02.455Z,96971.06
2022-09-07T06:39:55.937Z,96958.47
2022-09-07T06:44:49.356Z,96981.72
2022-09-07T06:49:42.729Z,96989.06
2022-09-07T06:59:50.858Z,97000.88
2022-09-07T07:04:44.386Z,97007.31
2022-09-07T07:09:39.336Z,97018.97
2022-09-07T07:14:34.671Z,97021.94
2022-09-07T07:19:29.622Z,97034.56
2022-09-07T07:24:24.046Z,97036.84
2022-09-07T07:29:19.155Z,97043.84
2022-09-07T07:34:13.095Z,97046.16
2022-09-07T07:39:06.707Z,97066.72
2022-09-07T07:44:00.508Z,97065.00
2022-09-07T07:48:56.792Z,97056.75
2022-09-07T07:53:50.201Z,97065.38
2022-09-07T07:58:47.474Z,97067.03
2022-09-07T08:03:43.983Z,97071.13
2022-09-07T08:08:39.545Z,97081.91
2022-09-07T08:13:33.782Z,97077.28
2022-09-07T08:18:27.508Z,97068.66
2022-09-07T08:23:21.426Z,97066.59
2022-09-07T08:28:15.966Z,97061.75
2022-09-07T08:33:09.235Z,97052.25
2022-09-07T08:38:02.449Z,97055.34
2022-09-07T08:43:12.192Z,97050.56
2022-09-07T08:48:07.538Z,97044.28
2022-09-07T08:53:08.418Z,97037.38
2022-09-07T08:58:27.107Z,97045.88
2022-09-07T09:03:32.150Z,97050.03
2022-09-07T09:08:52.509Z,97045.91
2022-09-07T09:14:03.219Z,97045.25
2022-09-07T09:19:20.405Z,97043.19
2022-09-07T09:24:19.117Z,97036.97
2022-09-07T09:29:16.803Z,97033.84
2022-09-07T09:34:15.104Z,97028.28
2022-09-07T09:39:31.429Z,97023.47
2022-09-07T09:44:27.951Z,97024.19
2022-09-07T09:49:26.970Z,97010.16
2022-09-07T09:54:28.540Z,97013.47
2022-09-07T10:04:43.779Z,97004.75
2022-09-07T10:09:41.598Z,96986.59
2022-09-07T10:14:43.173Z,96982.91
2022-09-07T10:19:39.813Z,96978.97
2022-09-07T10:24:41.464Z,96970.19
2022-09-07T10:29:36.133Z,96957.03
2022-09-07T10:34:44.982Z,96948.44
2022-09-07T10:39:43.566Z,96941.47
2022-09-07T10:44:55.383Z,96933.91
2022-09-07T10:55:20.158Z,96907.53
2022-09-07T11:00:17.314Z,96906.06
2022-09-07T11:05:29.772Z,96901.13
2022-09-07T11:10:41.084Z,96882.41
2022-09-07T11:15:43.562Z,96878.88
2022-09-07T11:20:46.430Z,96873.03
2022-09-07T11:25:49.026Z,96868.44
2022-09-07T11:30:48.278Z,96873.38
2022-09-07T11:35:51.653Z,96887.84
2022-09-07T11:41:03.047Z,96882.44
2022-09-07T11:46:05.008Z,96875.00
2022-09-07T11:51:03.455Z,96885.72
2022-09-07T11:56:04.927Z,96873.78
2022-09-07T12:01:17.228Z,96867.50
2022-09-07T12:06:51.829Z,96857.66
2022-09-07T12:12:20.532Z,96848.22
2022-09-07T12:17:33.983Z,96844.38
2022-09-07T12:22:27.609Z,96837.34
2022-09-07T12:27:41.333Z,96834.69
2022-09-07T12:33:05.876Z,96825.88
2022-09-07T12:38:01.103Z,96826.50
2022-09-07T12:43:53.736Z,96822.38
2022-09-07T12:49:04.641Z,96819.69
2022-09-07T12:54:07.936Z,96803.00
2022-09-07T12:59:35.718Z,96800.91
2022-09-07T13:05:06.315Z,96786.47
2022-09-07T13:10:03.635Z,96772.47
2022-09-07T13:15:00.625Z,96785.25
2022-09-07T13:20:30.118Z,96768.34
2022-09-07T13:26:00.038Z,96756.78
2022-09-07T13:31:16.676Z,96757.44
2022-09-07T13:36:37.843Z,96748.34
2022-09-07T13:41:39.016Z,96742.75
2022-09-07T13:47:20.268Z,96737.19
2022-09-07T13:52:20.032Z,96713.06
2022-09-07T13:57:27.563Z,96712.25
2022-09-07T14:02:27.503Z,96716.00
2022-09-07T14:07:25.211Z,96705.66
2022-09-07T14:12:21.277Z,96703.19
2022-09-07T14:17:20.495Z,96693.31
2022-09-07T14:22:19.971Z,96693.50
2022-09-07T14:27:24.686Z,96689.38
2022-09-07T14:32:23.373Z,96677.63
2022-09-07T14:37:21.555Z,96676.00
2022-09-07T14:42:23.091Z,96662.19
2022-09-07T14:47:29.457Z,96659.31
2022-09-07T14:52:37.796Z,96661.16
2022-09-07T14:57:35.455Z,96654.16
2022-09-07T15:02:37.371Z,96651.25
2022-09-07T15:07:39.494Z,96658.06
2022-09-07T15:12:38.856Z,96636.22
2022-09-07T15:17:49.242Z,96646.53
2022-09-07T15:22:44.184Z,96629.81
2022-09-07T15:27:38.462Z,96626.75
2022-09-07T15:32:34.356Z,96621.19
2022-09-07T15:43:11.473Z,96598.34
2022-09-07T15:48:07.067Z,96596.47
2022-09-07T15:53:01.706Z,96594.84
2022-09-07T15:58:10.711Z,96587.41
2022-09-07T16:03:07.079Z,96570.13
2022-09-07T16:13:21.812Z,96566.84
2022-09-07T16:18:18.359Z,96573.00
2022-09-07T16:23:15.927Z,96565.59
2022-09-07T16:28:54.945Z,96565.78
2022-09-07T16:33:48.640Z,96565.13
2022-09-07T16:38:44.757Z,96563.44
2022-09-07T16:43:39.952Z,96553.06
2022-09-07T16:48:36.514Z,96550.59
2022-09-07T16:53:31.150Z,96536.00
2022-09-07T16:58:38.313Z,96521.41
2022-09-07T17:03:33.137Z,96521.72
2022-09-07T17:08:26.492Z,96529.03
2022-09-07T17:13:20.306Z,96533.06
2022-09-07T17:18:13.842Z,96541.47
2022-09-07T17:23:08.555Z,96543.94
2022-09-07T17:28:01.894Z,96544.97
2022-09-07T17:32:55.190Z,96548.88
2022-09-07T17:37:48.463Z,96553.88
2022-09-07T17:47:56.499Z,96565.38
2022-09-07T17:52:53.026Z,96569.81
2022-09-07T17:57:47.925Z,96577.59
2022-09-07T18:02:41.114Z,96588.50
2022-09-07T18:07:35.070Z,96600.16
2022-09-07T18:12:28.319Z,96609.78
2022-09-07T18:17:25.676Z,96628.78
2022-09-07T18:22:19.106Z,96647.06
2022-09-07T18:27:12.509Z,96662.59
2022-09-07T18:32:09.813Z,96679.91
2022-09-07T18:37:05.086Z,96698.34
2022-09-07T18:41:58.530Z,96725.53
2022-09-07T18:46:52.008Z,96736.53
2022-09-07T18:57:00.119Z,96757.47
2022-09-07T19:02:05.040Z,96731.53
2022-09-07T19:07:02.948Z,96753.56
2022-09-07T19:12:24.118Z,96740.75
2022-09-07T19:17:27.661Z,96761.63
2022-09-07T19:22:27.395Z,96800.88
2022-09-07T19:27:32.874Z,96806.03
2022-09-07T19:32:41.862Z,96767.06
2022-09-07T19:37:37.169Z,96778.72
2022-09-07T19:42:37.449Z,96766.25
2022-09-07T19:47:40.646Z,96752.22
2022-09-07T19:52:37.410Z,96746.22
2022-09-07T19:57:50.565Z,96732.53
2022-09-07T20:02:48.511Z,96713.94
2022-09-07T20:07:56.666Z,96705.97
2022-09-07T20:13:01.383Z,96665.03
2022-09-07T20:17:57.999Z,96655.91
2022-09-07T20:22:51.437Z,96626.81
2022-09-07T20:27:48.537Z,96605.94
2022-09-07T20:32:43.122Z,96589.22
2022-09-07T20:37:54.080Z,96628.22
2022-09-07T20:42:47.556Z,96621.63
2022-09-07T20:47:42.277Z,96621.28
2022-09-07T20:52:35.785Z,96648.25
2022-09-07T20:57:29.060Z,96650.47
2022-09-07T21:02:22.501Z,96682.31
2022-09-07T21:07:17.665Z,96684.25
2022-09-07T21:12:10.929Z,96700.13
2022-09-07T21:17:04.189Z,96676.31
2022-09-07T21:21:57.485Z,96685.63
2022-09-07T21:26:52.635Z,96662.03
2022-09-07T21:31:46.461Z,96633.72
2022-09-07T21:36:39.993Z,96613.44
2022-09-07T21:41:33.957Z,96588.09
2022-09-07T21:46:30.719Z,96583.06
2022-09-07T21:51:24.667Z,96580.06
2022-09-07T21:56:17.914Z,96600.47
2022-09-07T22:01:16.459Z,96590.59
2022-09-07T22:06:15.442Z,96562.53
2022-09-07T22:11:12.712Z,96559.16
2022-09-07T22:16:07.401Z,96556.34
2022-09-07T22:21:07.279Z,96597.22
2022-09-07T22:26:02.125Z,96637.97
2022-09-07T22:30:55.302Z,96680.31
2022-09-07T22:35:48.778Z,96731.13
2022-09-07T22:40:42.016Z,96726.84
2022-09-07T22:45:36.639Z,96745.16
2022-09-07T22:50:29.871Z,96712.59
2022-09-07T22:55:23.087Z,96697.06
2022-09-07T23:00:17.176Z,96686.28
2022-09-07T23:05:12.060Z,96673.31
2022-09-07T23:10:06.063Z,96651.25
2022-09-07T23:14:59.319Z,96617.78
2022-09-07T23:19:52.613Z,96587.41
2022-09-07T23:24:47.331Z,96538.44
2022-09-07T23:29:40.540Z,96498.25
2022-09-07T23:34:33.791Z,96481.78
2022-09-07T23:39:27.259Z,96484.81
2022-09-07T23:44:21.920Z,96504.97
2022-09-07T23:49:15.479Z,96489.31
2022-09-07T23:54:09.121Z,96504.31
2022-09-07T23:59:02.458Z,96517.47
